TimeCST,TemperatureF,Dew PointF,Humidity,Sea Level PressureIn,VisibilityMPH,Wind Direction,Wind SpeedMPH,Gust SpeedMPH,PrecipitationIn,Events,Conditions,WindDirDegrees,DateUTC
12:14 AM,33.8,24.8,70,30.34,10.0,SE,3.5,-,N/A,,Clear,140,2012-11-17 06:14:00
12:33 AM,33.8,24.8,70,30.34,10.0,Calm,Calm,-,N/A,,Clear,0,2012-11-17 06:33:00
12:54 AM,33.8,26.6,75,30.34,10.0,Calm,Calm,-,N/A,,Clear,0,2012-11-17 06:54:00
1:13 AM,33.8,26.6,75,30.33,10.0,Calm,Calm,-,N/A,,Clear,0,2012-11-17 07:13:00
1:34 AM,33.8,26.6,75,30.33,10.0,Calm,Calm,-,N/A,,Clear,0,2012-11-17 07:34:00
1:53 AM,33.8,26.6,75,30.33,10.0,Calm,Calm,-,N/A,,Clear,0,2012-11-17 07:53:00
2:13 AM,32.0,28.4,87,30.33,10.0,Calm,Calm,-,N/A,,Clear,0,2012-11-17 08:13:00
2:33 AM,30.2,28.4,93,30.32,10.0,Calm,Calm,-,N/A,,Clear,0,2012-11-17 08:33:00
2:54 AM,32.0,28.4,87,30.32,10.0,Calm,Calm,-,N/A,,Clear,0,2012-11-17 08:54:00
3:13 AM,30.2,28.4,93,30.31,10.0,Calm,Calm,-,N/A,,Clear,0,2012-11-17 09:13:00
3:53 AM,30.2,28.4,93,30.30,10.0,Calm,Calm,-,N/A,,Clear,0,2012-11-17 09:53:00
4:14 AM,30.2,28.4,93,30.30,10.0,Calm,Calm,-,N/A,,Clear,0,2012-11-17 10:14:00
4:34 AM,30.2,28.4,93,30.29,10.0,Calm,Calm,-,N/A,,Clear,0,2012-11-17 10:34:00
4:53 AM,30.2,28.4,93,30.29,10.0,Calm,Calm,-,N/A,,Clear,0,2012-11-17 10:53:00
5:14 AM,30.2,28.4,93,30.29,10.0,Calm,Calm,-,N/A,,Clear,0,2012-11-17 11:14:00
5:34 AM,30.2,28.4,93,30.28,10.0,Calm,Calm,-,N/A,,Clear,0,2012-11-17 11:34:00
5:53 AM,30.2,28.4,93,30.28,7.0,Calm,Calm,-,N/A,,Clear,0,2012-11-17 11:53:00
6:14 AM,30.2,28.4,93,30.27,7.0,Calm,Calm,-,N/A,,Clear,0,2012-11-17 12:14:00
6:34 AM,30.2,28.4,93,30.27,10.0,Calm,Calm,-,N/A,,Clear,0,2012-11-17 12:34:00
6:53 AM,32.0,30.2,93,30.27,10.0,Calm,Calm,-,N/A,,Clear,0,2012-11-17 12:53:00
7:14 AM,30.2,28.4,93,30.27,7.0,Calm,Calm,-,N/A,,Clear,0,2012-11-17 13:14:00
7:34 AM,30.2,28.4,93,30.27,5.0,Calm,Calm,-,N/A,,Clear,0,2012-11-17 13:34:00
7:53 AM,30.2,28.4,93,30.27,7.0,Calm,Calm,-,N/A,,Clear,0,2012-11-17 13:53:00
8:13 AM,32.0,28.4,87,30.27,7.0,Calm,Calm,-,N/A,,Clear,0,2012-11-17 14:13:00
8:34 AM,33.8,30.2,87,30.27,7.0,Calm,Calm,-,N/A,,Clear,0,2012-11-17 14:34:00
8:53 AM,33.8,32.0,93,30.27,7.0,Calm,Calm,-,N/A,,Clear,0,2012-11-17 14:53:00
9:14 AM,35.6,33.8,93,30.27,10.0,Calm,Calm,-,N/A,,Clear,0,2012-11-17 15:14:00
9:33 AM,37.4,33.8,87,30.27,10.0,NW,3.5,-,N/A,,Clear,310,2012-11-17 15:33:00
9:53 AM,39.2,33.8,81,30.27,10.0,Calm,Calm,-,N/A,,Clear,0,2012-11-17 15:53:00
10:13 AM,41.0,33.8,76,30.27,10.0,Calm,Calm,-,N/A,,Clear,0,2012-11-17 16:13:00
10:33 AM,42.8,33.8,70,30.27,10.0,NNE,3.5,-,N/A,,Clear,20,2012-11-17 16:33:00
10:54 AM,42.8,35.6,76,30.26,10.0,NNE,3.5,-,N/A,,Clear,20,2012-11-17 16:54:00
11:13 AM,42.8,35.6,76,30.26,10.0,NNE,3.5,-,N/A,,Clear,30,2012-11-17 17:13:00
11:33 AM,50.0,35.6,58,30.25,10.0,SSW,10.4,-,N/A,,Clear,200,2012-11-17 17:33:00
11:54 AM,51.8,35.6,54,30.23,10.0,SSW,10.4,-,N/A,,Clear,200,2012-11-17 17:54:00
12:13 PM,51.8,35.6,54,30.23,10.0,South,10.4,-,N/A,,Clear,190,2012-11-17 18:13:00
12:33 PM,51.8,35.6,54,30.22,10.0,South,11.5,17.3,N/A,,Clear,190,2012-11-17 18:33:00
12:54 PM,51.8,35.6,54,30.22,10.0,South,10.4,-,N/A,,Clear,190,2012-11-17 18:54:00
1:13 PM,53.6,35.6,51,30.21,10.0,South,9.2,-,N/A,,Clear,170,2012-11-17 19:13:00
1:34 PM,53.6,35.6,51,30.21,10.0,SSW,13.8,-,N/A,,Clear,200,2012-11-17 19:34:00
1:54 PM,53.6,35.6,51,30.20,10.0,South,11.5,-,N/A,,Clear,180,2012-11-17 19:54:00
2:13 PM,53.6,35.6,51,30.21,10.0,SSW,13.8,-,N/A,,Clear,200,2012-11-17 20:13:00
2:34 PM,53.6,35.6,51,30.20,10.0,South,11.5,-,N/A,,Clear,190,2012-11-17 20:34:00
2:54 PM,51.8,35.6,54,30.21,10.0,South,8.1,-,N/A,,Clear,170,2012-11-17 20:54:00
3:13 PM,51.8,35.6,54,30.21,10.0,South,5.8,-,N/A,,Clear,170,2012-11-17 21:13:00
3:34 PM,53.6,35.6,51,30.21,10.0,South,10.4,-,N/A,,Clear,180,2012-11-17 21:34:00
3:54 PM,51.8,35.6,54,30.21,10.0,South,5.8,-,N/A,,Clear,170,2012-11-17 21:54:00
4:13 PM,50.0,35.6,58,30.21,10.0,SSE,4.6,-,N/A,,Clear,160,2012-11-17 22:13:00
4:34 PM,51.8,35.6,54,30.21,10.0,SSE,6.9,-,N/A,,Clear,150,2012-11-17 22:34:00
4:54 PM,48.2,35.6,62,30.21,10.0,SSE,6.9,-,N/A,,Clear,160,2012-11-17 22:54:00
5:13 PM,50.0,35.6,58,30.21,10.0,South,6.9,-,N/A,,Clear,170,2012-11-17 23:13:00
5:34 PM,50.0,35.6,58,30.21,10.0,South,6.9,-,N/A,,Clear,180,2012-11-17 23:34:00
5:54 PM,50.0,37.4,62,30.21,10.0,South,6.9,-,N/A,,Clear,170,2012-11-17 23:54:00
6:13 PM,50.0,37.4,62,30.22,10.0,South,6.9,-,N/A,,Clear,180,2012-11-18 00:13:00
6:34 PM,50.0,37.4,62,30.22,10.0,South,6.9,-,N/A,,Scattered Clouds,180,2012-11-18 00:34:00
6:54 PM,48.2,37.4,66,30.22,10.0,South,8.1,-,N/A,,Mostly Cloudy,190,2012-11-18 00:54:00
7:13 PM,50.0,37.4,62,30.22,10.0,SSW,6.9,-,N/A,,Overcast,200,2012-11-18 01:13:00
7:34 PM,50.0,37.4,62,30.21,10.0,South,8.1,-,N/A,,Mostly Cloudy,170,2012-11-18 01:34:00
7:54 PM,48.2,37.4,66,30.22,10.0,South,9.2,-,N/A,,Scattered Clouds,180,2012-11-18 01:54:00
8:13 PM,50.0,37.4,62,30.22,10.0,South,6.9,-,N/A,,Scattered Clouds,190,2012-11-18 02:13:00
8:34 PM,48.2,37.4,66,30.22,10.0,SSW,5.8,-,N/A,,Mostly Cloudy,200,2012-11-18 02:34:00
8:54 PM,50.0,37.4,62,30.23,10.0,SSW,9.2,-,N/A,,Overcast,200,2012-11-18 02:54:00
9:13 PM,48.2,37.4,66,30.23,10.0,SSW,6.9,-,N/A,,Overcast,210,2012-11-18 03:13:00
9:34 PM,48.2,37.4,66,30.23,10.0,South,9.2,-,N/A,,Overcast,180,2012-11-18 03:34:00
9:54 PM,48.2,37.4,66,30.23,10.0,South,8.1,-,N/A,,Overcast,180,2012-11-18 03:54:00
10:13 PM,48.2,37.4,66,30.24,10.0,South,6.9,-,N/A,,Light Drizzle,180,2012-11-18 04:13:00
10:34 PM,48.2,37.4,66,30.23,7.0,South,12.7,-,N/A,Rain,Light Rain,180,2012-11-18 04:34:00
10:54 PM,46.4,39.2,76,30.23,10.0,South,10.4,-,N/A,Rain,Light Rain,170,2012-11-18 04:54:00
11:13 PM,44.6,39.2,81,30.24,10.0,SSE,5.8,-,N/A,,Drizzle,160,2012-11-18 05:13:00
11:34 PM,44.6,41.0,87,30.23,7.0,SSE,11.5,-,N/A,Rain,Light Rain,160,2012-11-18 05:34:00
11:54 PM,44.6,41.0,87,30.23,10.0,SE,3.5,-,N/A,Rain,Light Rain,130,2012-11-18 05:54:00